createdAt,value
2022-09-27T00:01:23.654Z,10.38
2022-09-27T00:03:55.154Z,10.42
2022-09-27T00:06:25.845Z,10.40
2022-09-27T00:08:52.584Z,10.34
2022-09-27T00:11:35.295Z,10.36
2022-09-27T00:14:02.356Z,10.41
2022-09-27T00:16:32.780Z,10.38
2022-09-27T00:19:07.506Z,10.34
2022-09-27T00:21:34.491Z,10.36
2022-09-27T00:24:01.160Z,10.32
2022-09-27T00:26:28.178Z,10.33
2022-09-27T00:28:55.014Z,10.34
2022-09-27T00:31:31.218Z,10.26
2022-09-27T00:34:00.337Z,10.32
2022-09-27T00:36:28.397Z,10.34
2022-09-27T00:38:56.108Z,10.27
2022-09-27T00:41:25.265Z,10.35
2022-09-27T00:44:29.202Z,10.36
2022-09-27T00:47:14.178Z,10.37
2022-09-27T00:50:01.913Z,10.36
2022-09-27T00:52:55.838Z,10.32
2022-09-27T00:55:38.874Z,10.24
2022-09-27T00:58:06.613Z,10.26
2022-09-27T01:00:33.066Z,10.23
2022-09-27T01:03:00.650Z,10.22
2022-09-27T01:05:28.935Z,10.16
2022-09-27T01:07:56.756Z,10.22
2022-09-27T01:10:25.410Z,10.17
2022-09-27T01:13:19.322Z,10.23
2022-09-27T01:15:50.418Z,10.22
2022-09-27T01:18:29.069Z,10.21
2022-09-27T01:21:22.692Z,10.23
2022-09-27T01:24:08.371Z,10.26
2022-09-27T01:27:11.924Z,10.23
2022-09-27T01:29:47.328Z,10.20
2022-09-27T01:32:25.604Z,10.23
2022-09-27T01:35:14.337Z,10.20
2022-09-27T01:38:07.926Z,10.22
2022-09-27T01:41:11.512Z,10.19
2022-09-27T01:43:48.721Z,10.20
2022-09-27T01:46:30.148Z,10.17
2022-09-27T01:48:59.169Z,10.14
2022-09-27T01:51:35.348Z,10.07
2022-09-27T01:54:04.355Z,10.07
2022-09-27T01:56:38.566Z,10.16
2022-09-27T01:59:13.352Z,10.14
2022-09-27T02:01:44.155Z,10.03
2022-09-27T02:04:15.051Z,10.04
2022-09-27T02:06:45.617Z,10.02
2022-09-27T02:09:21.970Z,10.02
2022-09-27T02:11:56.074Z,9.97
2022-09-27T02:14:26.898Z,10.03
2022-09-27T02:17:31.176Z,10.01
2022-09-27T02:20:11.871Z,9.98
2022-09-27T02:22:47.680Z,9.94
2022-09-27T02:25:18.795Z,10.03
2022-09-27T02:27:59.002Z,10.07
2022-09-27T02:30:25.427Z,10.16
2022-09-27T02:32:52.352Z,9.96
2022-09-27T02:35:27.264Z,9.96
2022-09-27T02:37:55.290Z,10.03
2022-09-27T02:40:22.636Z,9.99
2022-09-27T02:42:49.253Z,10.08
2022-09-27T02:45:18.318Z,9.99
2022-09-27T02:47:47.412Z,9.99
2022-09-27T02:50:41.730Z,9.93
2022-09-27T02:53:25.980Z,9.99
2022-09-27T02:56:14.274Z,9.96
2022-09-27T02:59:03.254Z,10.00
2022-09-27T03:02:00.337Z,9.99
2022-09-27T03:04:41.200Z,10.03
2022-09-27T03:07:08.167Z,9.90
2022-09-27T03:09:47.918Z,9.87
2022-09-27T03:12:20.635Z,9.93
2022-09-27T03:14:46.998Z,9.90
2022-09-27T03:17:13.361Z,9.84
2022-09-27T03:19:39.929Z,9.90
2022-09-27T03:22:06.778Z,9.89
2022-09-27T03:24:33.167Z,9.82
2022-09-27T03:26:59.580Z,9.80
2022-09-27T03:29:26.012Z,9.79
2022-09-27T03:31:52.356Z,9.77
2022-09-27T03:34:18.718Z,9.81
2022-09-27T03:36:45.413Z,9.74
2022-09-27T03:39:11.736Z,9.79
2022-09-27T03:41:38.233Z,9.75
2022-09-27T03:44:04.602Z,9.72
2022-09-27T03:46:31.022Z,9.62
2022-09-27T03:48:57.494Z,9.62
2022-09-27T03:51:24.034Z,9.57
2022-09-27T03:53:50.565Z,9.49
2022-09-27T03:56:17.008Z,9.56
2022-09-27T03:58:43.430Z,9.56
2022-09-27T04:01:09.973Z,9.49
2022-09-27T04:03:36.458Z,9.52
2022-09-27T04:06:03.855Z,9.55
2022-09-27T04:08:30.280Z,9.55
2022-09-27T04:10:57.165Z,9.47
2022-09-27T04:13:24.056Z,9.48
2022-09-27T04:15:52.412Z,9.52
2022-09-27T04:18:19.051Z,9.50
2022-09-27T04:20:45.463Z,9.45
2022-09-27T04:23:11.895Z,9.38
2022-09-27T04:25:39.838Z,9.52
2022-09-27T04:28:06.351Z,9.55
2022-09-27T04:30:32.859Z,9.52
2022-09-27T04:32:59.304Z,9.42
2022-09-27T04:35:44.685Z,9.46
2022-09-27T04:38:11.007Z,9.40
2022-09-27T04:40:38.438Z,9.34
2022-09-27T04:43:04.829Z,9.40
2022-09-27T04:45:31.487Z,9.36
2022-09-27T04:47:57.810Z,9.30
2022-09-27T04:50:24.491Z,9.32
2022-09-27T04:52:52.261Z,9.30
2022-09-27T04:55:20.338Z,9.22
2022-09-27T04:57:47.250Z,9.21
2022-09-27T05:00:14.632Z,9.26
2022-09-27T05:02:45.705Z,9.27
2022-09-27T05:05:12.315Z,9.32
2022-09-27T05:07:39.534Z,9.31
2022-09-27T05:10:07.275Z,9.30
2022-09-27T05:12:33.759Z,9.29
2022-09-27T05:15:00.184Z,9.25
2022-09-27T05:17:26.838Z,9.27
2022-09-27T05:19:53.290Z,9.26
2022-09-27T05:22:20.101Z,9.27
2022-09-27T05:24:47.195Z,9.23
2022-09-27T05:27:18.293Z,9.30
2022-09-27T05:29:45.483Z,9.34
2022-09-27T05:32:12.677Z,9.28
2022-09-27T05:34:39.442Z,9.27
2022-09-27T05:37:06.009Z,9.30
2022-09-27T05:39:32.385Z,9.18
2022-09-27T05:41:58.836Z,9.12
2022-09-27T05:44:25.984Z,9.25
2022-09-27T05:46:52.722Z,9.28
2022-09-27T05:49:20.143Z,9.27
2022-09-27T05:51:47.345Z,9.28
2022-09-27T05:54:13.841Z,9.30
2022-09-27T05:56:40.210Z,9.26
2022-09-27T05:59:06.620Z,9.28
2022-09-27T06:01:33.593Z,9.19
2022-09-27T06:04:00.036Z,9.20
2022-09-27T06:06:26.532Z,9.31
2022-09-27T06:08:52.923Z,9.33
2022-09-27T06:11:19.344Z,9.23
2022-09-27T06:13:45.875Z,9.37
2022-09-27T06:16:12.747Z,9.37
2022-09-27T06:18:39.604Z,9.45
2022-09-27T06:21:06.379Z,9.47
2022-09-27T06:23:33.058Z,9.42
2022-09-27T06:26:05.164Z,9.48
2022-09-27T06:28:32.474Z,9.45
2022-09-27T06:31:01.082Z,9.37
2022-09-27T06:33:28.306Z,9.38
2022-09-27T06:35:54.995Z,9.48
2022-09-27T06:38:21.504Z,9.52
2022-09-27T06:40:48.320Z,9.56
2022-09-27T06:43:20.417Z,9.53
2022-09-27T06:45:47.381Z,9.58
2022-09-27T06:48:15.748Z,9.51
2022-09-27T06:50:46.814Z,9.50
2022-09-27T06:53:15.595Z,9.46
2022-09-27T06:55:42.398Z,9.42
2022-09-27T06:58:43.430Z,9.52
2022-09-27T07:01:10.321Z,9.51
2022-09-27T07:03:41.083Z,9.59
2022-09-27T07:06:15.850Z,9.60
2022-09-27T07:08:42.777Z,9.45
2022-09-27T07:11:09.389Z,9.41
2022-09-27T07:13:40.258Z,9.49
2022-09-27T07:16:07.294Z,9.52
2022-09-27T07:18:33.745Z,9.49
2022-09-27T07:21:01.544Z,9.43
2022-09-27T07:23:28.032Z,9.48
2022-09-27T07:25:54.414Z,9.55
2022-09-27T07:28:22.002Z,9.59
2022-09-27T07:30:49.330Z,9.58
2022-09-27T07:33:15.829Z,9.61
2022-09-27T07:35:43.664Z,9.57
2022-09-27T07:38:13.126Z,9.52
2022-09-27T07:40:41.038Z,9.49
2022-09-27T07:43:09.330Z,9.48
2022-09-27T07:45:36.580Z,9.52
2022-09-27T07:48:07.099Z,9.58
2022-09-27T07:50:33.578Z,9.62
2022-09-27T07:53:00.021Z,9.70
2022-09-27T07:55:26.634Z,9.79
2022-09-27T07:58:02.772Z,9.76
2022-09-27T08:00:29.444Z,9.86
2022-09-27T08:02:55.796Z,9.85
2022-09-27T08:05:22.122Z,9.94
2022-09-27T08:07:48.495Z,9.99
2022-09-27T08:10:15.311Z,10.10
2022-09-27T08:12:41.663Z,10.17
2022-09-27T08:15:08.535Z,10.05
2022-09-27T08:17:34.910Z,10.01
2022-09-27T08:20:05.642Z,9.95
2022-09-27T08:22:32.114Z,10.03
2022-09-27T08:24:58.552Z,10.06
2022-09-27T08:27:25.314Z,9.96
2022-09-27T08:29:52.047Z,9.96
2022-09-27T08:32:23.029Z,9.96
2022-09-27T08:34:49.978Z,10.04
2022-09-27T08:37:16.356Z,9.98
2022-09-27T08:39:45.666Z,9.99
2022-09-27T08:42:43.537Z,10.12
2022-09-27T08:45:22.872Z,10.22
2022-09-27T08:47:55.572Z,10.13
2022-09-27T08:50:29.220Z,10.14
2022-09-27T08:53:05.263Z,10.05
2022-09-27T08:55:54.444Z,10.03
2022-09-27T08:58:30.518Z,9.99
2022-09-27T09:01:03.312Z,10.06
2022-09-27T09:03:33.489Z,10.02
2022-09-27T09:06:20.135Z,10.02
2022-09-27T09:09:20.432Z,10.04
2022-09-27T09:12:38.963Z,10.10
2022-09-27T09:15:24.805Z,10.11
2022-09-27T09:18:25.263Z,10.04
2022-09-27T09:21:00.477Z,10.06
2022-09-27T09:23:33.397Z,10.20
2022-09-27T09:26:24.566Z,10.34
2022-09-27T09:29:22.309Z,10.39
2022-09-27T09:32:07.921Z,10.50
2022-09-27T09:34:42.847Z,10.62
2022-09-27T09:37:37.701Z,10.42
2022-09-27T09:40:29.815Z,10.51
2022-09-27T09:43:07.778Z,10.56
2022-09-27T09:45:41.664Z,10.45
2022-09-27T09:48:32.855Z,10.63
2022-09-27T09:51:02.265Z,10.74
2022-09-27T09:53:49.150Z,10.88
2022-09-27T09:56:29.531Z,10.94
2022-09-27T09:59:02.962Z,11.27
2022-09-27T10:01:42.994Z,11.49
2022-09-27T10:04:19.486Z,11.46
2022-09-27T10:06:46.595Z,11.39
2022-09-27T10:09:16.434Z,11.37
2022-09-27T10:11:45.646Z,11.42
2022-09-27T10:14:15.383Z,11.67
2022-09-27T10:16:47.178Z,12.06
2022-09-27T10:19:17.090Z,12.38
2022-09-27T10:21:46.668Z,12.05
2022-09-27T10:24:18.903Z,11.81
2022-09-27T10:26:48.516Z,11.76
2022-09-27T10:29:20.614Z,11.56
2022-09-27T10:31:49.127Z,11.50
2022-09-27T10:34:21.459Z,11.62
2022-09-27T10:37:04.187Z,11.84
2022-09-27T10:39:30.918Z,11.69
2022-09-27T10:41:57.326Z,11.60
2022-09-27T10:44:29.803Z,11.49
2022-09-27T10:47:00.462Z,11.36
2022-09-27T10:49:34.169Z,11.42
2022-09-27T10:52:15.062Z,11.43
2022-09-27T10:54:43.029Z,11.29
2022-09-27T10:57:22.621Z,11.42
2022-09-27T10:59:58.261Z,11.36
2022-09-27T11:02:31.069Z,11.30
2022-09-27T11:05:27.869Z,11.33
2022-09-27T11:07:56.775Z,11.41
2022-09-27T11:10:36.377Z,11.57
2022-09-27T11:13:20.161Z,11.75
2022-09-27T11:16:10.872Z,11.63
2022-09-27T11:19:02.817Z,11.78
2022-09-27T11:21:45.809Z,11.82
2022-09-27T11:24:12.098Z,11.99
2022-09-27T11:27:07.154Z,12.33
2022-09-27T11:30:00.040Z,12.67
2022-09-27T11:32:57.128Z,12.50
2022-09-27T11:35:47.001Z,12.16
2022-09-27T11:38:52.340Z,12.03
2022-09-27T11:41:30.388Z,12.03
2022-09-27T11:44:15.457Z,12.02
2022-09-27T11:46:42.985Z,11.92
2022-09-27T11:49:46.267Z,11.87
2022-09-27T11:52:51.281Z,12.15
2022-09-27T11:55:30.918Z,12.03
2022-09-27T11:58:18.854Z,12.30
2022-09-27T12:00:48.672Z,12.51
2022-09-27T12:03:39.117Z,12.60
2022-09-27T12:06:24.218Z,12.71
2022-09-27T12:08:51.298Z,12.52
2022-09-27T12:11:26.513Z,12.31
2022-09-27T12:14:06.849Z,12.18
2022-09-27T12:16:34.382Z,11.79
2022-09-27T12:19:03.274Z,11.82
2022-09-27T12:21:32.585Z,11.69
2022-09-27T12:24:00.910Z,11.43
2022-09-27T12:26:37.504Z,11.24
2022-09-27T12:29:25.170Z,11.37
2022-09-27T12:32:02.253Z,11.25
2022-09-27T12:34:46.073Z,11.33
2022-09-27T12:37:25.233Z,11.61
2022-09-27T12:40:04.607Z,11.62
2022-09-27T12:45:21.423Z,11.58
2022-09-27T12:47:56.678Z,11.60
2022-09-27T12:50:46.112Z,11.97
2022-09-27T12:53:23.644Z,11.82
2022-09-27T12:56:15.068Z,11.50
2022-09-27T12:58:58.036Z,11.25
2022-09-27T13:01:39.651Z,11.06
2022-09-27T13:05:03.171Z,10.89
2022-09-27T13:07:42.376Z,10.81
2022-09-27T13:10:39.117Z,10.91
2022-09-27T13:13:09.075Z,10.80
2022-09-27T13:15:39.552Z,10.80
2022-09-27T13:18:27.298Z,10.93
2022-09-27T13:20:55.592Z,11.10
2022-09-27T13:23:22.292Z,11.08
2022-09-27T13:26:20.243Z,11.23
2022-09-27T13:28:49.670Z,11.14
2022-09-27T13:31:17.083Z,11.35
2022-09-27T13:33:54.861Z,11.43
2022-09-27T13:36:24.817Z,11.32
2022-09-27T13:39:11.797Z,11.39
2022-09-27T13:41:51.572Z,11.41
2022-09-27T13:44:36.749Z,11.62
2022-09-27T13:47:15.873Z,11.84
2022-09-27T13:49:46.775Z,12.04
2022-09-27T13:52:36.164Z,12.24
2022-09-27T13:55:06.986Z,12.37
2022-09-27T13:57:51.394Z,12.72
2022-09-27T14:00:22.349Z,12.47
2022-09-27T14:03:01.147Z,12.54
2022-09-27T14:05:33.905Z,12.51
2022-09-27T14:08:02.413Z,12.46
2022-09-27T14:10:30.152Z,12.61
2022-09-27T14:13:00.198Z,12.47
2022-09-27T14:15:31.916Z,12.48
2022-09-27T14:17:59.201Z,12.81
2022-09-27T14:20:33.548Z,12.82
2022-09-27T14:23:01.225Z,12.92
2022-09-27T14:25:27.560Z,12.90
2022-09-27T14:27:54.000Z,12.74
2022-09-27T14:30:23.147Z,12.72
2022-09-27T14:32:52.305Z,12.68
2022-09-27T14:35:40.076Z,12.57
2022-09-27T14:38:35.980Z,12.35
2022-09-27T14:41:03.761Z,12.05
2022-09-27T14:43:32.905Z,11.95
2022-09-27T14:46:07.194Z,11.85
2022-09-27T14:48:36.348Z,12.03
2022-09-27T14:51:30.582Z,12.24
2022-09-27T14:54:01.124Z,12.12
2022-09-27T14:56:32.163Z,12.30
2022-09-27T14:59:05.569Z,12.39
2022-09-27T15:01:33.076Z,12.13
2022-09-27T15:04:14.588Z,11.93
2022-09-27T15:06:41.646Z,11.79
2022-09-27T15:09:13.766Z,11.72
2022-09-27T15:11:41.577Z,11.70
2022-09-27T15:14:15.185Z,11.66
2022-09-27T15:16:42.541Z,11.68
2022-09-27T15:19:34.373Z,11.61
2022-09-27T15:22:24.424Z,11.47
2022-09-27T15:24:51.026Z,11.51
2022-09-27T15:27:17.998Z,11.37
2022-09-27T15:30:05.621Z,11.19
2022-09-27T15:32:32.097Z,11.17
2022-09-27T15:35:08.012Z,11.20
2022-09-27T15:37:36.939Z,11.17
2022-09-27T15:40:19.510Z,10.99
2022-09-27T15:42:57.766Z,10.95
2022-09-27T15:45:36.038Z,11.00
2022-09-27T15:48:16.126Z,10.99
2022-09-27T15:50:43.038Z,10.93
2022-09-27T15:53:10.595Z,10.96
2022-09-27T15:55:43.270Z,10.98
2022-09-27T15:58:16.580Z,10.80
2022-09-27T16:00:54.300Z,10.59
2022-09-27T16:03:21.218Z,10.53
2022-09-27T16:05:47.797Z,10.40
2022-09-27T16:08:14.204Z,10.39
2022-09-27T16:10:48.397Z,10.39
2022-09-27T16:13:14.745Z,10.30
2022-09-27T16:15:41.572Z,10.14
2022-09-27T16:18:08.160Z,10.17
2022-09-27T16:20:34.537Z,10.23
2022-09-27T16:23:01.481Z,10.25
2022-09-27T16:25:28.688Z,10.21
2022-09-27T16:28:00.082Z,10.17
2022-09-27T16:30:26.930Z,10.21
2022-09-27T16:32:54.535Z,10.21
2022-09-27T16:35:22.541Z,10.22
2022-09-27T16:37:49.482Z,10.24
2022-09-27T16:40:19.520Z,10.20
2022-09-27T16:42:49.431Z,10.18
2022-09-27T16:45:19.137Z,10.22
2022-09-27T16:47:46.034Z,10.20
2022-09-27T16:50:32.327Z,10.17
2022-09-27T16:53:00.085Z,10.06
2022-09-27T16:55:29.613Z,10.12
2022-09-27T16:57:59.412Z,10.11
2022-09-27T17:00:27.061Z,10.10
2022-09-27T17:02:54.616Z,10.09
2022-09-27T17:05:22.672Z,10.05
2022-09-27T17:07:53.272Z,10.02
2022-09-27T17:10:20.769Z,10.00
2022-09-27T17:12:48.049Z,9.99
2022-09-27T17:15:15.934Z,9.96
2022-09-27T17:17:45.008Z,9.81
2022-09-27T17:20:11.534Z,9.91
2022-09-27T17:22:37.925Z,9.87
2022-09-27T17:25:04.579Z,9.91
2022-09-27T17:27:31.006Z,9.92
2022-09-27T17:29:57.430Z,9.91
2022-09-27T17:32:24.575Z,9.89
2022-09-27T17:34:51.683Z,9.80
2022-09-27T17:37:18.215Z,9.80
2022-09-27T17:39:44.588Z,9.83
2022-09-27T17:42:11.796Z,9.83
2022-09-27T17:44:38.248Z,9.83
2022-09-27T17:47:23.850Z,9.82
2022-09-27T17:50:09.007Z,9.82
2022-09-27T17:52:35.604Z,9.77
2022-09-27T17:55:03.034Z,9.80
2022-09-27T17:57:29.666Z,9.78
2022-09-27T17:59:57.121Z,9.80
2022-09-27T18:02:23.992Z,9.75
2022-09-27T18:04:50.508Z,9.73
2022-09-27T18:07:17.394Z,9.67
2022-09-27T18:09:43.925Z,9.71
2022-09-27T18:12:10.977Z,9.70
2022-09-27T18:14:37.406Z,9.70
2022-09-27T18:17:03.826Z,9.72
2022-09-27T18:19:30.203Z,9.67
2022-09-27T18:21:56.872Z,9.59
2022-09-27T18:24:23.269Z,9.70
2022-09-27T18:26:49.658Z,9.69
2022-09-27T18:29:20.658Z,9.67
2022-09-27T18:31:49.090Z,9.62
2022-09-27T18:34:18.071Z,9.64
2022-09-27T18:36:44.926Z,9.63
2022-09-27T18:39:18.857Z,9.66
2022-09-27T18:41:48.743Z,9.65
2022-09-27T18:44:15.959Z,9.71
2022-09-27T18:46:42.825Z,9.70
2022-09-27T18:49:14.354Z,9.66
2022-09-27T18:51:44.478Z,9.65
2022-09-27T18:54:17.310Z,9.68
2022-09-27T18:56:44.126Z,9.62
2022-09-27T18:59:11.047Z,9.66
2022-09-27T19:01:39.898Z,9.67
2022-09-27T19:04:08.041Z,9.63
2022-09-27T19:06:35.161Z,9.65
2022-09-27T19:09:02.477Z,9.62
2022-09-27T19:11:28.941Z,9.64
2022-09-27T19:13:57.209Z,9.58
2022-09-27T19:16:25.441Z,9.57
2022-09-27T19:18:52.049Z,9.57
2022-09-27T19:21:21.455Z,9.55
2022-09-27T19:23:49.004Z,9.54
2022-09-27T19:26:18.932Z,9.51
2022-09-27T19:28:46.055Z,9.51
2022-09-27T19:31:18.527Z,9.52
2022-09-27T19:33:45.041Z,9.56
2022-09-27T19:36:14.569Z,9.57
2022-09-27T19:38:41.051Z,9.53
2022-09-27T19:41:10.523Z,9.54
2022-09-27T19:43:37.275Z,9.51
2022-09-27T19:46:08.006Z,9.52
2022-09-27T19:48:40.685Z,9.51
2022-09-27T19:51:09.480Z,9.54
2022-09-27T19:53:41.218Z,9.52
2022-09-27T19:56:09.568Z,9.46
2022-09-27T19:58:37.681Z,9.46
2022-09-27T20:01:08.257Z,9.45
2022-09-27T20:03:37.189Z,9.41
2022-09-27T20:06:05.320Z,9.40
2022-09-27T20:08:31.758Z,9.42
2022-09-27T20:11:05.893Z,9.40
2022-09-27T20:13:34.224Z,9.39
2022-09-27T20:16:12.889Z,9.46
2022-09-27T20:18:45.455Z,9.43
2022-09-27T20:21:11.921Z,9.41
2022-09-27T20:23:38.668Z,9.32
2022-09-27T20:26:07.999Z,9.33
2022-09-27T20:28:35.288Z,9.33
2022-09-27T20:31:04.326Z,9.30
2022-09-27T20:33:44.668Z,9.21
2022-09-27T20:36:13.424Z,9.18
2022-09-27T20:38:50.721Z,9.22
2022-09-27T20:41:20.151Z,9.26
2022-09-27T20:43:48.024Z,9.29
2022-09-27T20:46:17.250Z,9.22
2022-09-27T20:48:44.201Z,9.20
2022-09-27T20:51:14.737Z,9.17
2022-09-27T20:53:42.385Z,9.13
2022-09-27T20:56:17.271Z,9.18
2022-09-27T20:58:44.195Z,9.09
2022-09-27T21:01:10.574Z,9.23
2022-09-27T21:03:37.034Z,9.05
2022-09-27T21:06:04.509Z,9.07
2022-09-27T21:08:33.962Z,9.09
2022-09-27T21:11:05.686Z,9.10
2022-09-27T21:13:32.095Z,9.23
2022-09-27T21:16:06.905Z,9.23
2022-09-27T21:18:34.636Z,9.22
2022-09-27T21:21:04.091Z,9.18
2022-09-27T21:23:31.721Z,9.21
2022-09-27T21:26:06.453Z,9.25
2022-09-27T21:28:38.862Z,9.25
2022-09-27T21:31:10.125Z,9.24
2022-09-27T21:33:37.413Z,9.19
2022-09-27T21:36:05.985Z,9.27
2022-09-27T21:38:33.415Z,9.29
2022-09-27T21:41:05.151Z,9.21
2022-09-27T21:43:34.167Z,9.13
2022-09-27T21:46:06.204Z,9.16
2022-09-27T21:48:34.134Z,9.14
2022-09-27T21:51:05.436Z,9.12
2022-09-27T21:53:33.102Z,9.12
2022-09-27T21:56:00.020Z,9.12
2022-09-27T21:58:26.698Z,9.14
2022-09-27T22:00:53.273Z,9.13
2022-09-27T22:03:22.349Z,9.11
2022-09-27T22:05:50.333Z,9.10
2022-09-27T22:08:18.154Z,9.08
2022-09-27T22:10:45.795Z,9.16
2022-09-27T22:13:12.817Z,9.07
2022-09-27T22:15:39.466Z,9.13
2022-09-27T22:18:05.877Z,9.12
2022-09-27T22:20:32.547Z,9.09
2022-09-27T22:22:58.996Z,9.10
2022-09-27T22:25:25.384Z,9.09
2022-09-27T22:27:52.082Z,9.12
2022-09-27T22:30:18.486Z,9.10
2022-09-27T22:32:45.665Z,9.09
2022-09-27T22:35:12.038Z,9.04
2022-09-27T22:37:38.767Z,8.97
2022-09-27T22:40:06.186Z,8.97
2022-09-27T22:42:32.588Z,9.01
2022-09-27T22:44:58.968Z,8.99
2022-09-27T22:47:25.335Z,9.02
2022-09-27T22:49:51.705Z,9.00
2022-09-27T22:52:18.022Z,8.96
2022-09-27T22:54:44.406Z,8.89
2022-09-27T22:57:10.901Z,8.96
2022-09-27T22:59:37.283Z,8.90
2022-09-27T23:02:04.094Z,8.92
2022-09-27T23:04:30.959Z,8.89
2022-09-27T23:06:57.312Z,8.84
2022-09-27T23:09:24.556Z,8.89
2022-09-27T23:11:51.048Z,8.90
2022-09-27T23:14:17.398Z,8.83
2022-09-27T23:16:43.858Z,8.84
2022-09-27T23:19:10.539Z,8.75
2022-09-27T23:21:37.088Z,8.78
2022-09-27T23:24:03.603Z,8.77
2022-09-27T23:26:29.950Z,8.73
2022-09-27T23:28:59.062Z,8.70
2022-09-27T23:31:28.033Z,8.73
2022-09-27T23:33:54.573Z,8.70
2022-09-27T23:36:26.927Z,8.74
2022-09-27T23:38:55.578Z,8.71
2022-09-27T23:41:22.295Z,8.70
2022-09-27T23:43:49.738Z,8.77
2022-09-27T23:46:18.358Z,8.80
2022-09-27T23:48:45.040Z,8.75
2022-09-27T23:51:11.658Z,8.83
2022-09-27T23:53:39.294Z,8.82
2022-09-27T23:56:16.585Z,8.83
2022-09-27T23:58:45.037Z,8.74
